Time;durP1;ratioP1;P1;durP2;ratioP2;P2;SDS_P1;SDS_P2;PMS_P1;PMS_P2;Temp;Humidity;BMP_temperature;BMP_pressure;BME280_temperature;BME280_humidity;BME280_pressure;Samples;Min_cycle;Max_cycle;Signal;HPM_P1;HPM_P2
2021/11/30 00:01:06;;;;;;;7.90;2.80;;;;;;;;;;5012788;28;20045;-64
2021/11/30 00:03:36;;;;;;;4.70;2.95;;;;;;;;;;5021207;28;20073;-64
2021/11/30 00:06:05;;;;;;;3.35;2.25;;;;;;;;;;5007995;28;20050;-64
2021/11/30 00:08:33;;;;;;;4.82;3.00;;;;;;;;;;5005318;28;20506;-63
2021/11/30 00:11:03;;;;;;;6.53;2.80;;;;;;;;;;5019248;28;20083;-66
2021/11/30 00:13:32;;;;;;;5.30;2.90;;;;;;;;;;5021628;28;20045;-64
2021/11/30 00:16:00;;;;;;;6.65;3.45;;;;;;;;;;5023583;28;20092;-64
2021/11/30 00:18:32;;;;;;;8.45;3.25;;;;;;;;;;5009431;28;20497;-64
2021/11/30 00:21:02;;;;;;;6.55;3.15;;;;;;;;;;5022266;28;20089;-64
2021/11/30 00:23:31;;;;;;;7.32;3.05;;;;;;;;;;5023486;28;20073;-63
2021/11/30 00:25:59;;;;;;;8.85;3.40;;;;;;;;;;5018975;28;20057;-64
2021/11/30 00:28:28;;;;;;;5.22;2.40;;;;;;;;;;5018747;28;20056;-64
2021/11/30 00:30:56;;;;;;;7.13;3.00;;;;;;;;;;5024003;28;20054;-64
2021/11/30 00:33:24;;;;;;;5.38;2.80;;;;;;;;;;5018680;28;20057;-64
2021/11/30 00:35:53;;;;;;;5.72;2.92;;;;;;;;;;5022216;28;20054;-64
2021/11/30 00:38:23;;;;;;;3.90;2.28;;;;;;;;;;5022139;28;20513;-64
2021/11/30 00:40:51;;;;;;;4.20;2.60;;;;;;;;;;5012501;28;20046;-64
2021/11/30 00:43:21;;;;;;;4.53;2.38;;;;;;;;;;5027041;28;20057;-64
2021/11/30 00:45:56;;;;;;;4.22;2.50;;;;;;;;;;5026070;28;20057;-64
2021/11/30 00:48:31;;;;;;;3.83;2.80;;;;;;;;;;5004423;28;20088;-64
2021/11/30 00:51:01;;;;;;;3.58;1.98;;;;;;;;;;5012109;28;20512;-64
2021/11/30 00:53:31;;;;;;;3.30;2.30;;;;;;;;;;5015026;28;20140;-64
2021/11/30 00:55:59;;;;;;;4.88;2.60;;;;;;;;;;5012174;28;20096;-64
2021/11/30 00:58:28;;;;;;;2.25;1.65;;;;;;;;;;5011573;28;20478;-65
2021/11/30 01:00:56;;;;;;;3.13;1.88;;;;;;;;;;5011704;28;20046;-65
2021/11/30 01:03:25;;;;;;;3.25;2.53;;;;;;;;;;5016927;28;20042;-64
2021/11/30 01:05:53;;;;;;;6.65;1.63;;;;;;;;;;5012223;28;20504;-65
2021/11/30 01:08:22;;;;;;;3.95;2.33;;;;;;;;;;5021464;28;20137;-65
2021/11/30 01:10:51;;;;;;;3.50;1.92;;;;;;;;;;5016961;28;20151;-64
2021/11/30 01:13:20;;;;;;;3.58;2.20;;;;;;;;;;5011314;28;20054;-65
2021/11/30 01:15:49;;;;;;;4.18;2.60;;;;;;;;;;5011674;28;20141;-65
2021/11/30 01:18:17;;;;;;;5.80;2.05;;;;;;;;;;5023692;28;20604;-65
2021/11/30 01:20:46;;;;;;;5.55;2.65;;;;;;;;;;5004460;28;20137;-64
2021/11/30 01:23:14;;;;;;;3.33;1.95;;;;;;;;;;5028609;28;20529;-65
2021/11/30 01:25:42;;;;;;;5.88;2.60;;;;;;;;;;5013312;28;20493;-65
2021/11/30 01:28:19;;;;;;;3.65;2.40;;;;;;;;;;3263368;28;10022239;-65
2021/11/30 01:30:47;;;;;;;3.70;2.20;;;;;;;;;;2590631;28;10001924;-65
2021/11/30 01:33:15;;;;;;;4.72;2.13;;;;;;;;;;5020032;28;20141;-65
2021/11/30 01:35:45;;;;;;;2.90;1.83;;;;;;;;;;5007519;28;20533;-65
2021/11/30 01:38:13;;;;;;;4.38;2.30;;;;;;;;;;5023332;28;20056;-65
2021/11/30 01:40:42;;;;;;;5.88;2.30;;;;;;;;;;5017907;28;20060;-64
2021/11/30 01:43:16;;;;;;;4.47;2.60;;;;;;;;;;5012401;28;20144;-65
2021/11/30 01:45:57;;;;;;;5.10;2.25;;;;;;;;;;5019366;28;20572;-65
2021/11/30 01:51:12;;;;;;;4.15;2.13;;;;;;;;;;5011527;28;20049;-65
2021/11/30 01:53:41;;;;;;;5.15;2.13;;;;;;;;;;5022360;28;20057;-65
2021/11/30 01:56:09;;;;;;;5.25;2.20;;;;;;;;;;5020941;28;20581;-65
2021/11/30 01:58:38;;;;;;;3.60;2.08;;;;;;;;;;5021740;28;20045;-65
2021/11/30 02:01:08;;;;;;;2.72;1.58;;;;;;;;;;5030243;28;20057;-65
2021/11/30 02:03:37;;;;;;;3.22;2.10;;;;;;;;;;5020332;28;20050;-65
2021/11/30 02:06:05;;;;;;;2.75;1.85;;;;;;;;;;5011056;28;20053;-65
2021/11/30 02:08:34;;;;;;;4.93;2.17;;;;;;;;;;5011413;28;20137;-65
2021/11/30 02:11:03;;;;;;;2.40;1.88;;;;;;;;;;5022222;28;20063;-64
2021/11/30 02:13:32;;;;;;;2.92;1.90;;;;;;;;;;5025278;28;20053;-65
2021/11/30 02:16:02;;;;;;;2.25;1.65;;;;;;;;;;5030629;28;20052;-64
2021/11/30 02:18:31;;;;;;;3.30;1.80;;;;;;;;;;5024347;28;20144;-65
2021/11/30 02:21:04;;;;;;;2.70;1.42;;;;;;;;;;5011424;28;20133;-65
2021/11/30 02:23:38;;;;;;;2.28;1.70;;;;;;;;;;5009185;28;20592;-65
2021/11/30 02:26:10;;;;;;;2.45;1.77;;;;;;;;;;5014440;28;20053;-65
2021/11/30 02:28:39;;;;;;;4.13;2.20;;;;;;;;;;5022817;28;20122;-65
2021/11/30 02:31:08;;;;;;;3.13;1.83;;;;;;;;;;5010458;28;20073;-65
2021/11/30 02:33:37;;;;;;;2.60;1.70;;;;;;;;;;5010661;28;20052;-65
2021/11/30 02:36:18;;;;;;;2.67;1.60;;;;;;;;;;5017949;28;20050;-65
2021/11/30 02:38:46;;;;;;;2.00;1.45;;;;;;;;;;5012885;28;20049;-65
2021/11/30 02:41:15;;;;;;;3.88;1.95;;;;;;;;;;5018032;28;20046;-65
2021/11/30 02:43:43;;;;;;;2.40;1.70;;;;;;;;;;5014416;28;20331;-65
2021/11/30 02:46:12;;;;;;;2.90;1.52;;;;;;;;;;5013314;28;20078;-65
2021/11/30 02:48:40;;;;;;;5.55;1.98;;;;;;;;;;5010602;28;20045;-65
2021/11/30 02:51:09;;;;;;;5.88;2.20;;;;;;;;;;5016060;28;20061;-65
2021/11/30 02:53:38;;;;;;;3.30;1.65;;;;;;;;;;5023229;28;20455;-65
2021/11/30 02:56:07;;;;;;;6.53;1.55;;;;;;;;;;5023509;28;20059;-65
2021/11/30 02:58:35;;;;;;;1.90;1.40;;;;;;;;;;5026120;28;20132;-65
2021/11/30 03:01:06;;;;;;;3.55;1.95;;;;;;;;;;5011235;28;20054;-65
2021/11/30 03:03:35;;;;;;;2.08;1.55;;;;;;;;;;5016999;28;20048;-65
2021/11/30 03:06:04;;;;;;;2.95;1.77;;;;;;;;;;5009719;28;20136;-65
2021/11/30 03:08:32;;;;;;;3.60;1.98;;;;;;;;;;5011290;28;20062;-65
2021/11/30 03:11:02;;;;;;;2.58;1.85;;;;;;;;;;5025533;28;20136;-65
2021/11/30 03:13:30;;;;;;;4.05;1.98;;;;;;;;;;5012327;28;20042;-65
2021/11/30 03:15:58;;;;;;;2.50;1.33;;;;;;;;;;5010635;28;20046;-65
2021/11/30 03:18:27;;;;;;;3.00;1.58;;;;;;;;;;5020790;28;20109;-65
2021/11/30 03:20:55;;;;;;;3.22;2.00;;;;;;;;;;4998475;28;20043;-65
2021/11/30 03:23:24;;;;;;;2.92;1.58;;;;;;;;;;5007737;28;20045;-65
2021/11/30 03:25:52;;;;;;;4.43;1.55;;;;;;;;;;5011343;28;20054;-65
2021/11/30 03:28:22;;;;;;;4.43;1.95;;;;;;;;;;5016254;28;20493;-65
2021/11/30 03:30:57;;;;;;;2.55;1.60;;;;;;;;;;5009661;28;20482;-65
2021/11/30 03:36:11;;;;;;;1.85;1.40;;;;;;;;;;5004376;28;20056;-64
2021/11/30 03:38:40;;;;;;;3.40;1.77;;;;;;;;;;5008672;28;20486;-64
2021/11/30 03:41:08;;;;;;;2.47;1.63;;;;;;;;;;5018727;28;20055;-65
2021/11/30 03:43:38;;;;;;;3.38;1.95;;;;;;;;;;5009009;28;20054;-64
2021/11/30 03:46:07;;;;;;;2.10;1.48;;;;;;;;;;5009699;28;20501;-65
2021/11/30 03:48:35;;;;;;;2.38;1.45;;;;;;;;;;5009196;28;20046;-65
2021/11/30 03:51:04;;;;;;;2.92;1.90;;;;;;;;;;5008601;28;20138;-65
2021/11/30 03:53:32;;;;;;;3.75;1.77;;;;;;;;;;5010352;28;20137;-65
2021/11/30 03:56:01;;;;;;;2.55;1.92;;;;;;;;;;5017234;28;20075;-65
2021/11/30 03:58:29;;;;;;;2.60;1.67;;;;;;;;;;5010562;28;20409;-65
2021/11/30 04:00:58;;;;;;;2.55;1.65;;;;;;;;;;5012362;28;20046;-65
2021/11/30 04:03:29;;;;;;;3.00;2.08;;;;;;;;;;5012394;28;20490;-66
2021/11/30 04:05:57;;;;;;;3.30;1.80;;;;;;;;;;5012045;28;20080;-64
2021/11/30 04:08:25;;;;;;;3.33;1.58;;;;;;;;;;5024719;28;20053;-64
2021/11/30 04:10:54;;;;;;;5.00;1.77;;;;;;;;;;5028616;28;20053;-64
2021/11/30 04:13:22;;;;;;;2.38;1.45;;;;;;;;;;5022868;28;20052;-64
2021/11/30 04:15:51;;;;;;;2.72;1.42;;;;;;;;;;5018409;28;20129;-65
2021/11/30 04:18:20;;;;;;;5.10;1.70;;;;;;;;;;5012719;28;20413;-65
2021/11/30 04:20:49;;;;;;;3.15;1.60;;;;;;;;;;5012829;28;20079;-64
2021/11/30 04:23:17;;;;;;;3.70;1.85;;;;;;;;;;5021951;28;20050;-64
2021/11/30 04:25:45;;;;;;;2.05;1.58;;;;;;;;;;5014790;28;20038;-65
2021/11/30 04:28:13;;;;;;;2.85;1.60;;;;;;;;;;5012771;28;20060;-65
2021/11/30 04:30:42;;;;;;;2.83;1.77;;;;;;;;;;5015063;28;20054;-65
2021/11/30 04:33:10;;;;;;;4.13;2.08;;;;;;;;;;5016706;28;20061;-65
2021/11/30 04:35:40;;;;;;;2.33;1.35;;;;;;;;;;5018740;28;20038;-65
2021/11/30 04:38:08;;;;;;;1.92;1.52;;;;;;;;;;5013999;28;20050;-65
2021/11/30 04:40:37;;;;;;;2.53;1.80;;;;;;;;;;5015605;28;20442;-65
2021/11/30 04:43:08;;;;;;;1.92;1.60;;;;;;;;;;5016909;28;20571;-65
2021/11/30 04:45:49;;;;;;;2.88;1.60;;;;;;;;;;5025343;28;20064;-65
2021/11/30 04:48:17;;;;;;;5.47;1.27;;;;;;;;;;5013598;28;20080;-65
2021/11/30 04:50:50;;;;;;;4.18;1.80;;;;;;;;;;5012711;28;20045;-65
2021/11/30 04:53:20;;;;;;;3.67;1.75;;;;;;;;;;5019794;28;20048;-65
2021/11/30 04:55:50;;;;;;;3.35;1.65;;;;;;;;;;5017388;28;20052;-65
2021/11/30 04:58:19;;;;;;;2.35;1.55;;;;;;;;;;5011939;28;20050;-64
2021/11/30 05:00:47;;;;;;;5.30;1.88;;;;;;;;;;5015490;28;20046;-65
2021/11/30 05:03:16;;;;;;;2.58;1.70;;;;;;;;;;5024799;28;20433;-65
2021/11/30 05:05:46;;;;;;;6.30;1.92;;;;;;;;;;5018809;28;20049;-65
2021/11/30 05:08:15;;;;;;;2.75;1.88;;;;;;;;;;5021996;28;20059;-65
2021/11/30 05:10:44;;;;;;;3.30;1.42;;;;;;;;;;5016294;28;20049;-65
2021/11/30 05:13:13;;;;;;;2.53;1.70;;;;;;;;;;5021435;28;20048;-65
2021/11/30 05:15:41;;;;;;;2.47;1.67;;;;;;;;;;5022308;28;20046;-64
2021/11/30 05:18:10;;;;;;;3.60;1.92;;;;;;;;;;5012447;28;20121;-65
2021/11/30 05:20:38;;;;;;;3.63;1.55;;;;;;;;;;5021133;28;20056;-64
2021/11/30 05:23:06;;;;;;;4.45;1.60;;;;;;;;;;5011680;28;20052;-65
2021/11/30 05:25:37;;;;;;;1.92;1.30;;;;;;;;;;5006139;28;20061;-65
2021/11/30 05:28:06;;;;;;;2.63;1.42;;;;;;;;;;5019480;28;20049;-65
2021/11/30 05:30:37;;;;;;;7.50;2.42;;;;;;;;;;5022222;28;20093;-65
2021/11/30 05:33:07;;;;;;;9.13;2.30;;;;;;;;;;5025975;28;20392;-65
2021/11/30 05:35:36;;;;;;;2.33;1.95;;;;;;;;;;5016216;28;20054;-65
2021/11/30 05:38:05;;;;;;;4.13;1.73;;;;;;;;;;5018350;28;20054;-65
2021/11/30 05:40:34;;;;;;;2.92;1.95;;;;;;;;;;5021807;28;20404;-65
2021/11/30 05:43:05;;;;;;;8.98;1.67;;;;;;;;;;5029942;28;20382;-64
2021/11/30 05:45:33;;;;;;;2.78;1.48;;;;;;;;;;5010617;28;20407;-65
2021/11/30 05:48:02;;;;;;;4.30;2.03;;;;;;;;;;5010378;28;20502;-65
2021/11/30 05:50:30;;;;;;;3.17;1.10;;;;;;;;;;5014120;28;20050;-65
2021/11/30 05:52:58;;;;;;;3.30;1.35;;;;;;;;;;5023007;28;20053;-66
2021/11/30 05:55:27;;;;;;;2.78;1.73;;;;;;;;;;5012519;28;20153;-65
2021/11/30 05:57:55;;;;;;;4.95;1.63;;;;;;;;;;5015097;28;20057;-65
2021/11/30 06:00:27;;;;;;;7.75;1.73;;;;;;;;;;5013706;28;20069;-65
2021/11/30 06:03:00;;;;;;;3.33;1.67;;;;;;;;;;5011935;28;20057;-65
2021/11/30 06:05:30;;;;;;;2.47;2.00;;;;;;;;;;5027363;28;20067;-64
2021/11/30 06:07:58;;;;;;;1.70;1.10;;;;;;;;;;5002464;28;20085;-65
2021/11/30 06:10:27;;;;;;;2.00;1.50;;;;;;;;;;5007551;28;20080;-64
2021/11/30 06:12:56;;;;;;;5.30;2.10;;;;;;;;;;5011553;28;20141;-65
2021/11/30 06:15:26;;;;;;;4.80;1.92;;;;;;;;;;5012334;28;20053;-65
2021/11/30 06:17:55;;;;;;;3.25;1.63;;;;;;;;;;5013566;28;20058;-64
2021/11/30 06:20:24;;;;;;;5.47;1.50;;;;;;;;;;5009557;28;20128;-65
2021/11/30 06:22:53;;;;;;;2.05;1.33;;;;;;;;;;5020524;28;20360;-65
2021/11/30 06:25:21;;;;;;;2.90;2.05;;;;;;;;;;5010376;28;20045;-65
2021/11/30 06:27:50;;;;;;;2.67;1.55;;;;;;;;;;5010522;28;20660;-65
2021/11/30 06:30:18;;;;;;;3.28;1.90;;;;;;;;;;4995504;28;20385;-65
2021/11/30 06:32:48;;;;;;;5.47;2.15;;;;;;;;;;5007472;28;20046;-65
2021/11/30 06:35:17;;;;;;;3.25;1.55;;;;;;;;;;5007575;28;20077;-65
2021/11/30 06:37:45;;;;;;;2.70;1.38;;;;;;;;;;5007255;28;20511;-65
2021/11/30 06:40:14;;;;;;;3.00;2.05;;;;;;;;;;5006544;28;20088;-65
2021/11/30 06:42:43;;;;;;;5.25;1.77;;;;;;;;;;5011635;28;20049;-65
2021/11/30 06:45:11;;;;;;;3.70;1.70;;;;;;;;;;5020713;28;20056;-65
2021/11/30 06:47:42;;;;;;;6.50;2.05;;;;;;;;;;5026126;28;20581;-65
2021/11/30 06:50:12;;;;;;;5.90;2.10;;;;;;;;;;5015048;28;20129;-65
2021/11/30 06:52:41;;;;;;;2.95;1.58;;;;;;;;;;5010353;28;20042;-65
2021/11/30 06:55:10;;;;;;;6.88;1.50;;;;;;;;;;5006932;28;20180;-66
2021/11/30 06:57:38;;;;;;;3.20;1.90;;;;;;;;;;5010883;28;20053;-65
2021/11/30 07:00:08;;;;;;;1.73;1.38;;;;;;;;;;5018951;28;20103;-65
2021/11/30 07:02:36;;;;;;;4.45;2.10;;;;;;;;;;5006412;28;20054;-64
2021/11/30 07:05:15;;;;;;;5.07;1.45;;;;;;;;;;5006007;28;20444;-65
2021/11/30 07:07:53;;;;;;;9.27;2.00;;;;;;;;;;5010485;28;20057;-65
2021/11/30 07:10:40;;;;;;;3.08;1.77;;;;;;;;;;5014993;28;20045;-65
2021/11/30 07:13:18;;;;;;;4.28;1.70;;;;;;;;;;5005030;28;20105;-65
2021/11/30 07:15:48;;;;;;;2.47;1.55;;;;;;;;;;5006777;28;20359;-64
2021/11/30 07:18:16;;;;;;;3.70;1.75;;;;;;;;;;4991205;28;20109;-65
2021/11/30 07:20:45;;;;;;;2.40;1.50;;;;;;;;;;5014376;28;20254;-64
2021/11/30 07:23:15;;;;;;;4.63;2.40;;;;;;;;;;5011201;28;20141;-65
2021/11/30 07:25:44;;;;;;;2.78;1.77;;;;;;;;;;5008750;28;20041;-65
2021/11/30 07:28:13;;;;;;;2.80;1.80;;;;;;;;;;5008066;28;20133;-65
2021/11/30 07:30:42;;;;;;;11.13;1.80;;;;;;;;;;5009008;28;20050;-65
2021/11/30 07:33:11;;;;;;;2.25;1.52;;;;;;;;;;5007153;28;20569;-65
2021/11/30 07:35:40;;;;;;;4.90;2.25;;;;;;;;;;5011364;28;20053;-65
2021/11/30 07:38:09;;;;;;;3.25;1.73;;;;;;;;;;5002451;28;20486;-65
2021/11/30 07:40:39;;;;;;;2.67;1.52;;;;;;;;;;5009844;28;20074;-65
2021/11/30 07:43:07;;;;;;;4.90;2.08;;;;;;;;;;5012816;28;20085;-65
2021/11/30 07:45:35;;;;;;;3.22;1.50;;;;;;;;;;5009352;28;20054;-65
2021/11/30 07:48:04;;;;;;;1.77;1.33;;;;;;;;;;5014265;28;20046;-65
2021/11/30 07:50:33;;;;;;;2.25;1.42;;;;;;;;;;5016815;28;20053;-65
2021/11/30 07:53:02;;;;;;;3.75;1.58;;;;;;;;;;5010047;28;20049;-66
2021/11/30 07:55:31;;;;;;;2.28;1.42;;;;;;;;;;4994389;28;20088;-66
2021/11/30 07:58:01;;;;;;;3.83;1.60;;;;;;;;;;5017579;28;20129;-66
2021/11/30 08:00:30;;;;;;;5.00;2.00;;;;;;;;;;5027159;28;20048;-66
2021/11/30 08:02:59;;;;;;;4.90;1.30;;;;;;;;;;5012908;28;20057;-65
2021/11/30 08:05:28;;;;;;;1.90;0.85;;;;;;;;;;5019873;28;20461;-65
2021/11/30 08:07:57;;;;;;;5.93;1.67;;;;;;;;;;5012638;28;20064;-66
2021/11/30 08:10:28;;;;;;;1.42;1.30;;;;;;;;;;5022311;28;20068;-66
2021/11/30 08:12:57;;;;;;;1.33;1.02;;;;;;;;;;5003414;28;20054;-66
2021/11/30 08:15:27;;;;;;;13.18;1.60;;;;;;;;;;5023373;28;20111;-66
2021/11/30 08:18:03;;;;;;;2.88;1.10;;;;;;;;;;5018373;28;20058;-65
2021/11/30 08:20:32;;;;;;;3.03;1.40;;;;;;;;;;4999996;28;20097;-65
2021/11/30 08:23:01;;;;;;;2.25;1.23;;;;;;;;;;5017462;28;20497;-65
2021/11/30 08:25:29;;;;;;;5.38;1.23;;;;;;;;;;5018740;28;20072;-65
2021/11/30 08:27:58;;;;;;;3.85;1.55;;;;;;;;;;5006327;28;20169;-66
2021/11/30 08:30:47;;;;;;;2.83;1.67;;;;;;;;;;5011131;28;20136;-65
2021/11/30 08:33:15;;;;;;;1.65;1.02;;;;;;;;;;5020407;28;20492;-65
2021/11/30 08:35:44;;;;;;;3.40;1.35;;;;;;;;;;5019163;28;20160;-65
2021/11/30 08:38:13;;;;;;;4.00;1.50;;;;;;;;;;5000346;28;20169;-66
2021/11/30 08:40:42;;;;;;;1.60;1.27;;;;;;;;;;5027379;28;20397;-65
2021/11/30 08:43:10;;;;;;;5.68;1.42;;;;;;;;;;5001145;28;20193;-66
2021/11/30 08:45:39;;;;;;;12.65;1.50;;;;;;;;;;5001129;28;20077;-66
2021/11/30 08:48:09;;;;;;;2.08;1.33;;;;;;;;;;5011311;28;20137;-65
2021/11/30 08:50:38;;;;;;;1.27;1.10;;;;;;;;;;5012003;28;20050;-65
2021/11/30 08:53:06;;;;;;;5.28;1.70;;;;;;;;;;5004316;28;20057;-65
2021/11/30 08:55:35;;;;;;;3.17;1.30;;;;;;;;;;5027649;28;20132;-65
2021/11/30 08:58:04;;;;;;;2.35;1.02;;;;;;;;;;5010635;28;20108;-65
2021/11/30 09:00:33;;;;;;;3.38;1.30;;;;;;;;;;4999793;28;20049;-65
2021/11/30 09:03:02;;;;;;;2.60;1.40;;;;;;;;;;5021569;28;20062;-66
2021/11/30 09:05:32;;;;;;;2.63;1.35;;;;;;;;;;5014171;28;20061;-66
2021/11/30 09:08:01;;;;;;;2.33;1.67;;;;;;;;;;5012564;28;20061;-66
2021/11/30 09:10:30;;;;;;;7.57;2.45;;;;;;;;;;5013311;28;20104;-66
2021/11/30 09:12:59;;;;;;;2.15;1.15;;;;;;;;;;5004803;28;20054;-66
2021/11/30 09:15:28;;;;;;;1.40;0.70;;;;;;;;;;5007282;28;20971;-66
2021/11/30 09:17:59;;;;;;;5.32;2.05;;;;;;;;;;5000324;28;20454;-66
2021/11/30 09:20:30;;;;;;;7.15;2.17;;;;;;;;;;5008671;28;20042;-66
2021/11/30 09:23:01;;;;;;;4.70;1.60;;;;;;;;;;5006010;28;20104;-66
2021/11/30 09:25:30;;;;;;;3.85;1.30;;;;;;;;;;5008577;28;20049;-66
2021/11/30 09:28:01;;;;;;;1.95;1.17;;;;;;;;;;5000522;28;20478;-66
2021/11/30 09:30:30;;;;;;;2.28;1.13;;;;;;;;;;5006654;28;20050;-66
2021/11/30 09:32:59;;;;;;;3.60;1.02;;;;;;;;;;5007430;28;20077;-66
2021/11/30 09:35:28;;;;;;;2.22;1.15;;;;;;;;;;5008637;28;20541;-66
2021/11/30 09:37:57;;;;;;;2.95;1.30;;;;;;;;;;5006380;28;20049;-66
2021/11/30 09:40:28;;;;;;;1.20;0.93;;;;;;;;;;5013052;28;20049;-66
2021/11/30 09:43:17;;;;;;;1.27;0.90;;;;;;;;;;5009042;28;20050;-66
2021/11/30 09:45:46;;;;;;;3.03;1.02;;;;;;;;;;5009936;28;20116;-66
2021/11/30 09:48:15;;;;;;;2.47;1.27;;;;;;;;;;5009906;28;20678;-66
2021/11/30 09:50:46;;;;;;;0.70;0.70;;;;;;;;;;5007555;28;20046;-66
2021/11/30 09:53:16;;;;;;;2.65;1.00;;;;;;;;;;5010045;28;20133;-66
2021/11/30 09:55:47;;;;;;;2.22;0.95;;;;;;;;;;4990262;28;20136;-66
2021/11/30 09:58:16;;;;;;;2.53;0.90;;;;;;;;;;5009373;28;20394;-66
2021/11/30 10:00:46;;;;;;;2.38;1.45;;;;;;;;;;5008834;28;20045;-65
2021/11/30 10:03:17;;;;;;;0.68;0.60;;;;;;;;;;5008299;28;20096;-66
2021/11/30 10:05:46;;;;;;;0.65;0.60;;;;;;;;;;5009442;28;20056;-66
2021/11/30 10:08:25;;;;;;;1.50;0.90;;;;;;;;;;5001849;28;20342;-67
2021/11/30 10:11:10;;;;;;;1.98;0.52;;;;;;;;;;5009080;28;20053;-66
2021/11/30 10:13:45;;;;;;;7.22;0.90;;;;;;;;;;5008944;28;20586;-66
2021/11/30 10:16:14;;;;;;;2.25;0.98;;;;;;;;;;5008056;28;20045;-66
2021/11/30 10:18:44;;;;;;;2.13;0.60;;;;;;;;;;5002003;28;20571;-66
2021/11/30 10:21:21;;;;;;;1.67;1.42;;;;;;;;;;5006897;28;20092;-66
2021/11/30 10:23:50;;;;;;;3.63;0.68;;;;;;;;;;5008297;28;20099;-66
2021/11/30 10:26:22;;;;;;;2.97;0.50;;;;;;;;;;5005423;28;20100;-66
2021/11/30 10:28:55;;;;;;;3.08;0.70;;;;;;;;;;4998293;28;20053;-66
2021/11/30 10:31:28;;;;;;;1.90;0.82;;;;;;;;;;5005487;28;20132;-66
2021/11/30 10:33:57;;;;;;;3.00;0.45;;;;;;;;;;5001206;28;20065;-66
2021/11/30 10:36:26;;;;;;;0.98;0.80;;;;;;;;;;5007912;28;20050;-66
2021/11/30 10:38:55;;;;;;;1.30;0.73;;;;;;;;;;5008199;28;20056;-66
2021/11/30 10:41:26;;;;;;;2.00;0.80;;;;;;;;;;5009315;28;20141;-66
2021/11/30 10:43:55;;;;;;;2.50;1.13;;;;;;;;;;5001700;28;20138;-66
2021/11/30 10:46:28;;;;;;;0.80;0.52;;;;;;;;;;4997520;28;20123;-66
2021/11/30 10:48:57;;;;;;;0.40;0.40;;;;;;;;;;5006783;28;20417;-66
2021/11/30 10:51:26;;;;;;;2.63;0.90;;;;;;;;;;5007970;28;20073;-65
2021/11/30 10:53:57;;;;;;;0.75;0.73;;;;;;;;;;5005449;28;20073;-66
2021/11/30 10:56:27;;;;;;;2.20;0.82;;;;;;;;;;4995690;28;20129;-66
2021/11/30 10:58:56;;;;;;;0.80;0.80;;;;;;;;;;5005306;28;20835;-66
2021/11/30 11:01:26;;;;;;;0.47;0.40;;;;;;;;;;5004553;28;20482;-66
2021/11/30 11:04:02;;;;;;;2.72;0.90;;;;;;;;;;5004849;28;20561;-66
2021/11/30 11:06:31;;;;;;;1.48;0.60;;;;;;;;;;5008200;28;20054;-65
2021/11/30 11:09:03;;;;;;;1.52;0.80;;;;;;;;;;5007705;28;20054;-65
2021/11/30 11:11:34;;;;;;;0.90;0.65;;;;;;;;;;5007578;28;20060;-65
2021/11/30 11:14:04;;;;;;;0.38;0.30;;;;;;;;;;5007164;28;20483;-65
2021/11/30 11:16:33;;;;;;;0.75;0.35;;;;;;;;;;5008139;28;20131;-66
2021/11/30 11:19:04;;;;;;;3.88;0.50;;;;;;;;;;5000249;28;20076;-64
2021/11/30 11:21:33;;;;;;;1.58;0.93;;;;;;;;;;5006797;28;20046;-64
2021/11/30 11:24:07;;;;;;;1.88;0.77;;;;;;;;;;5017346;28;20137;-64
2021/11/30 11:26:38;;;;;;;0.75;0.60;;;;;;;;;;5004965;28;20120;-64
2021/11/30 11:29:09;;;;;;;8.88;1.10;;;;;;;;;;5006481;28;20375;-64
2021/11/30 11:31:39;;;;;;;3.00;0.60;;;;;;;;;;5009859;28;20107;-64
2021/11/30 11:34:09;;;;;;;1.20;0.98;;;;;;;;;;5003070;28;20324;-65
2021/11/30 11:36:43;;;;;;;3.85;0.75;;;;;;;;;;5005111;28;20042;-64
2021/11/30 11:39:12;;;;;;;2.47;0.63;;;;;;;;;;5000036;28;20418;-65
2021/11/30 11:41:43;;;;;;;0.88;0.77;;;;;;;;;;5004370;28;20092;-65
2021/11/30 11:44:12;;;;;;;0.88;0.65;;;;;;;;;;5008431;28;20057;-64
2021/11/30 11:46:40;;;;;;;0.98;0.60;;;;;;;;;;5003529;28;20129;-64
2021/11/30 11:49:11;;;;;;;0.70;0.70;;;;;;;;;;4996528;28;20085;-65
2021/11/30 11:51:41;;;;;;;1.27;0.70;;;;;;;;;;5025057;28;20053;-65
2021/11/30 11:54:23;;;;;;;1.77;0.73;;;;;;;;;;5025117;28;20516;-65
2021/11/30 11:56:57;;;;;;;0.32;0.32;;;;;;;;;;4989296;28;20141;-65
2021/11/30 11:59:30;;;;;;;0.98;0.60;;;;;;;;;;5018386;28;20049;-64
2021/11/30 12:02:15;;;;;;;0.55;0.55;;;;;;;;;;5015012;28;20394;-65
2021/11/30 12:04:44;;;;;;;;;;;;;;;;;;5016027;28;20104;-65
2021/11/30 12:07:12;;;;;;;1.50;0.70;;;;;;;;;;5007505;28;19925;-65
2021/11/30 12:09:41;;;;;;;1.10;0.80;;;;;;;;;;5017687;28;20045;-64
2021/11/30 12:12:22;;;;;;;0.50;0.50;;;;;;;;;;5025578;28;20051;-65
2021/11/30 12:15:01;;;;;;;2.17;0.82;;;;;;;;;;5015442;28;20050;-64
2021/11/30 12:17:30;;;;;;;1.35;0.77;;;;;;;;;;5009065;28;20080;-65
2021/11/30 12:20:10;;;;;;;0.85;0.65;;;;;;;;;;5015832;28;20057;-65
2021/11/30 12:22:47;;;;;;;0.73;0.40;;;;;;;;;;5013228;28;20093;-64
2021/11/30 12:25:36;;;;;;;1.23;0.60;;;;;;;;;;5015998;28;20054;-65
2021/11/30 12:28:09;;;;;;;0.70;0.52;;;;;;;;;;5012137;28;20077;-64
2021/11/30 12:30:46;;;;;;;0.80;0.68;;;;;;;;;;5004881;28;20505;-65
2021/11/30 12:33:16;;;;;;;4.10;0.65;;;;;;;;;;5012696;28;20126;-64
2021/11/30 12:35:48;;;;;;;0.50;0.50;;;;;;;;;;5005632;28;20072;-65
2021/11/30 12:38:18;;;;;;;4.20;0.73;;;;;;;;;;5018079;28;20248;-64
2021/11/30 12:40:49;;;;;;;3.80;0.73;;;;;;;;;;5017557;28;20053;-65
2021/11/30 12:43:25;;;;;;;2.63;0.75;;;;;;;;;;5022912;28;20164;-65
2021/11/30 12:45:54;;;;;;;0.70;0.45;;;;;;;;;;5008340;28;20046;-65
2021/11/30 12:48:26;;;;;;;1.58;0.77;;;;;;;;;;5017901;28;20046;-64
2021/11/30 12:51:15;;;;;;;4.25;0.88;;;;;;;;;;4998162;28;20086;-65
2021/11/30 12:53:45;;;;;;;1.70;0.70;;;;;;;;;;5008250;28;20042;-65
2021/11/30 12:56:15;;;;;;;0.63;0.50;;;;;;;;;;5008745;28;20168;-64
2021/11/30 12:58:46;;;;;;;3.35;0.65;;;;;;;;;;5014839;28;20153;-65
2021/11/30 13:01:17;;;;;;;1.23;0.47;;;;;;;;;;5015918;28;21733;-64
2021/11/30 13:03:46;;;;;;;2.03;0.60;;;;;;;;;;5006208;28;20046;-64
2021/11/30 13:06:15;;;;;;;0.30;0.30;;;;;;;;;;5008604;28;20699;-64
2021/11/30 13:09:04;;;;;;;0.63;0.63;;;;;;;;;;5016537;28;20048;-64
2021/11/30 13:11:33;;;;;;;0.73;0.60;;;;;;;;;;4995953;28;20049;-64
2021/11/30 13:14:05;;;;;;;3.90;1.25;;;;;;;;;;5006297;28;20057;-64
2021/11/30 13:16:38;;;;;;;1.02;0.60;;;;;;;;;;5007247;28;20053;-65
2021/11/30 13:19:08;;;;;;;0.82;0.80;;;;;;;;;;5006477;28;20133;-64
2021/11/30 13:21:37;;;;;;;5.07;0.70;;;;;;;;;;5008477;28;20543;-65
2021/11/30 13:24:08;;;;;;;1.27;0.77;;;;;;;;;;5002782;28;20231;-65
2021/11/30 13:26:38;;;;;;;0.50;0.50;;;;;;;;;;5006962;28;20494;-65
2021/11/30 13:29:09;;;;;;;0.32;0.32;;;;;;;;;;5013001;28;20118;-65
2021/11/30 13:31:40;;;;;;;4.93;1.00;;;;;;;;;;5006469;28;20554;-66
2021/11/30 13:34:14;;;;;;;2.67;0.68;;;;;;;;;;4997229;28;20421;-65
2021/11/30 13:36:43;;;;;;;0.50;0.50;;;;;;;;;;5010785;28;20144;-65
2021/11/30 13:39:12;;;;;;;1.55;0.70;;;;;;;;;;5012847;28;20592;-65
2021/11/30 13:41:40;;;;;;;0.38;0.38;;;;;;;;;;5010484;28;20129;-65
2021/11/30 13:44:10;;;;;;;5.82;1.13;;;;;;;;;;5011292;28;20081;-65
2021/11/30 13:46:41;;;;;;;1.73;0.75;;;;;;;;;;5017512;28;20042;-65
2021/11/30 13:49:10;;;;;;;1.02;0.55;;;;;;;;;;5018040;28;20405;-65
2021/11/30 13:51:40;;;;;;;0.93;0.70;;;;;;;;;;5011719;28;20404;-65
2021/11/30 13:54:12;;;;;;;5.75;1.05;;;;;;;;;;4980041;28;20116;-65
2021/11/30 13:56:43;;;;;;;2.47;0.60;;;;;;;;;;5007988;28;20050;-65
2021/11/30 13:59:16;;;;;;;3.92;0.80;;;;;;;;;;4998502;28;20504;-65
2021/11/30 14:01:59;;;;;;;1.05;0.68;;;;;;;;;;5007040;28;20062;-64
2021/11/30 14:04:29;;;;;;;1.80;0.80;;;;;;;;;;5008729;28;20120;-65
2021/11/30 14:06:59;;;;;;;1.08;0.68;;;;;;;;;;5005228;28;20062;-64
2021/11/30 14:09:29;;;;;;;2.63;0.52;;;;;;;;;;5005270;28;20045;-65
2021/11/30 14:11:58;;;;;;;1.10;0.38;;;;;;;;;;4998051;28;20049;-65
2021/11/30 14:14:36;;;;;;;1.63;0.50;;;;;;;;;;4996571;28;20046;-65
2021/11/30 14:17:06;;;;;;;1.05;0.57;;;;;;;;;;5008747;28;20054;-65
2021/11/30 14:19:36;;;;;;;0.73;0.50;;;;;;;;;;5007304;28;20089;-65
2021/11/30 14:22:06;;;;;;;1.27;0.40;;;;;;;;;;5007969;28;20056;-65
2021/11/30 14:24:50;;;;;;;0.63;0.45;;;;;;;;;;5004303;28;20051;-65
2021/11/30 14:27:19;;;;;;;0.30;0.30;;;;;;;;;;4999812;28;20077;-65
2021/11/30 14:29:50;;;;;;;1.52;0.60;;;;;;;;;;4999516;28;20064;-65
2021/11/30 14:32:19;;;;;;;2.03;0.70;;;;;;;;;;5008410;28;20109;-65
2021/11/30 14:34:50;;;;;;;9.57;0.60;;;;;;;;;;5007707;28;20104;-65
2021/11/30 14:37:19;;;;;;;0.80;0.52;;;;;;;;;;5007671;28;20046;-65
2021/11/30 14:39:48;;;;;;;4.47;0.73;;;;;;;;;;5008912;28;20096;-65
2021/11/30 14:42:29;;;;;;;1.20;0.50;;;;;;;;;;5009310;28;20507;-64
2021/11/30 14:45:16;;;;;;;4.25;0.85;;;;;;;;;;4994435;28;20319;-66
2021/11/30 14:47:45;;;;;;;1.58;0.45;;;;;;;;;;5005782;28;20128;-65
2021/11/30 14:50:16;;;;;;;1.15;0.85;;;;;;;;;;5006957;28;20489;-66
2021/11/30 14:52:48;;;;;;;2.22;0.80;;;;;;;;;;5009149;28;20104;-64
2021/11/30 14:55:21;;;;;;;1.25;0.88;;;;;;;;;;5025896;28;20238;-64
2021/11/30 14:57:50;;;;;;;0.80;0.63;;;;;;;;;;5015464;28;20142;-64
2021/11/30 15:00:33;;;;;;;2.25;0.60;;;;;;;;;;5005265;28;20150;-65
2021/11/30 15:03:02;;;;;;;0.88;0.70;;;;;;;;;;5007175;28;20054;-64
2021/11/30 15:05:37;;;;;;;1.48;0.70;;;;;;;;;;4992311;28;20058;-65
2021/11/30 15:08:24;;;;;;;2.35;0.82;;;;;;;;;;5010498;28;20333;-64